sensor_id;sensor_type;location;lat;lon;timestamp;temperature;humidity
57386;DHT22;62655;56.780;23.922;2022-09-02T00:02:24;7.60;99.90
57386;DHT22;62655;56.780;23.922;2022-09-02T00:04:52;7.60;99.90
57386;DHT22;62655;56.780;23.922;2022-09-02T00:07:19;7.60;99.90
57386;DHT22;62655;56.780;23.922;2022-09-02T00:09:47;7.60;99.90
57386;DHT22;62655;56.780;23.922;2022-09-02T00:12:14;7.60;99.90
57386;DHT22;62655;56.780;23.922;2022-09-02T00:14:42;7.60;99.90
57386;DHT22;62655;56.780;23.922;2022-09-02T00:17:10;7.60;99.90
57386;DHT22;62655;56.780;23.922;2022-09-02T00:19:37;7.60;99.90
57386;DHT22;62655;56.780;23.922;2022-09-02T00:22:05;7.60;99.90
57386;DHT22;62655;56.780;23.922;2022-09-02T00:24:32;7.60;99.90
57386;DHT22;62655;56.780;23.922;2022-09-02T00:27:03;7.60;99.90
57386;DHT22;62655;56.780;23.922;2022-09-02T00:29:30;7.70;99.90
57386;DHT22;62655;56.780;23.922;2022-09-02T00:31:58;7.70;99.90
57386;DHT22;62655;56.780;23.922;2022-09-02T00:34:26;7.80;99.90
57386;DHT22;62655;56.780;23.922;2022-09-02T00:36:53;7.90;99.90
57386;DHT22;62655;56.780;23.922;2022-09-02T00:39:21;7.90;99.90
57386;DHT22;62655;56.780;23.922;2022-09-02T00:41:49;8.00;99.90
57386;DHT22;62655;56.780;23.922;2022-09-02T00:44:18;8.10;99.90
57386;DHT22;62655;56.780;23.922;2022-09-02T00:46:46;8.10;99.90
57386;DHT22;62655;56.780;23.922;2022-09-02T00:49:30;8.20;99.90
57386;DHT22;62655;56.780;23.922;2022-09-02T00:52:10;8.30;99.90
57386;DHT22;62655;56.780;23.922;2022-09-02T00:54:45;8.40;99.90
57386;DHT22;62655;56.780;23.922;2022-09-02T00:57:17;8.40;99.90
57386;DHT22;62655;56.780;23.922;2022-09-02T01:00:03;8.40;99.90
57386;DHT22;62655;56.780;23.922;2022-09-02T01:02:32;8.50;99.90
57386;DHT22;62655;56.780;23.922;2022-09-02T01:05:00;8.50;99.90
57386;DHT22;62655;56.780;23.922;2022-09-02T01:07:33;8.50;99.90
57386;DHT22;62655;56.780;23.922;2022-09-02T01:10:03;8.60;99.90
57386;DHT22;62655;56.780;23.922;2022-09-02T01:12:31;8.60;99.90
57386;DHT22;62655;56.780;23.922;2022-09-02T01:14:59;8.60;99.90
57386;DHT22;62655;56.780;23.922;2022-09-02T01:17:27;8.60;99.90
57386;DHT22;62655;56.780;23.922;2022-09-02T01:19:58;8.60;99.90
57386;DHT22;62655;56.780;23.922;2022-09-02T01:22:30;8.60;99.90
57386;DHT22;62655;56.780;23.922;2022-09-02T01:25:08;8.60;99.90
57386;DHT22;62655;56.780;23.922;2022-09-02T01:27:37;8.60;99.90
57386;DHT22;62655;56.780;23.922;2022-09-02T01:30:06;8.60;99.90
57386;DHT22;62655;56.780;23.922;2022-09-02T01:32:33;8.60;99.90
57386;DHT22;62655;56.780;23.922;2022-09-02T01:35:01;8.70;99.90
57386;DHT22;62655;56.780;23.922;2022-09-02T01:37:29;8.80;99.90
57386;DHT22;62655;56.780;23.922;2022-09-02T01:39:58;8.80;99.90
57386;DHT22;62655;56.780;23.922;2022-09-02T01:42:26;8.90;99.90
57386;DHT22;62655;56.780;23.922;2022-09-02T01:44:54;8.90;99.90
57386;DHT22;62655;56.780;23.922;2022-09-02T01:47:24;8.90;99.90
57386;DHT22;62655;56.780;23.922;2022-09-02T01:49:52;8.90;99.90
57386;DHT22;62655;56.780;23.922;2022-09-02T01:52:22;8.70;99.90
57386;DHT22;62655;56.780;23.922;2022-09-02T01:54:50;8.70;99.90
57386;DHT22;62655;56.780;23.922;2022-09-02T01:57:18;8.60;99.90
57386;DHT22;62655;56.780;23.922;2022-09-02T01:59:46;8.50;99.90
57386;DHT22;62655;56.780;23.922;2022-09-02T02:02:13;8.40;99.90
57386;DHT22;62655;56.780;23.922;2022-09-02T02:04:42;8.20;99.90
57386;DHT22;62655;56.780;23.922;2022-09-02T02:07:12;8.10;99.90
57386;DHT22;62655;56.780;23.922;2022-09-02T02:09:41;7.90;99.90
57386;DHT22;62655;56.780;23.922;2022-09-02T02:12:09;7.80;99.90
57386;DHT22;62655;56.780;23.922;2022-09-02T02:14:36;7.70;99.90
57386;DHT22;62655;56.780;23.922;2022-09-02T02:17:04;7.60;99.90
57386;DHT22;62655;56.780;23.922;2022-09-02T02:19:32;7.50;99.90
57386;DHT22;62655;56.780;23.922;2022-09-02T02:22:00;7.50;99.90
57386;DHT22;62655;56.780;23.922;2022-09-02T02:24:27;7.50;99.90
57386;DHT22;62655;56.780;23.922;2022-09-02T02:26:55;7.40;99.90
57386;DHT22;62655;56.780;23.922;2022-09-02T02:29:22;7.30;99.90
57386;DHT22;62655;56.780;23.922;2022-09-02T02:31:50;7.20;99.90
57386;DHT22;62655;56.780;23.922;2022-09-02T02:34:18;7.00;99.90
57386;DHT22;62655;56.780;23.922;2022-09-02T02:36:45;7.00;99.90
57386;DHT22;62655;56.780;23.922;2022-09-02T02:39:13;6.90;99.90
57386;DHT22;62655;56.780;23.922;2022-09-02T02:41:41;6.90;99.90
57386;DHT22;62655;56.780;23.922;2022-09-02T02:44:10;6.80;99.90
57386;DHT22;62655;56.780;23.922;2022-09-02T02:46:38;6.80;99.90
57386;DHT22;62655;56.780;23.922;2022-09-02T02:49:05;7.00;99.90
57386;DHT22;62655;56.780;23.922;2022-09-02T02:51:33;7.00;99.90
57386;DHT22;62655;56.780;23.922;2022-09-02T02:54:02;7.00;99.90
57386;DHT22;62655;56.780;23.922;2022-09-02T02:56:30;7.00;99.90
57386;DHT22;62655;56.780;23.922;2022-09-02T02:58:58;7.00;99.90
57386;DHT22;62655;56.780;23.922;2022-09-02T03:01:30;7.00;99.90
57386;DHT22;62655;56.780;23.922;2022-09-02T03:03:58;7.00;99.90
57386;DHT22;62655;56.780;23.922;2022-09-02T03:06:25;6.90;99.90
57386;DHT22;62655;56.780;23.922;2022-09-02T03:08:53;6.90;99.90
57386;DHT22;62655;56.780;23.922;2022-09-02T03:11:20;6.90;99.90
57386;DHT22;62655;56.780;23.922;2022-09-02T03:13:51;6.90;99.90
57386;DHT22;62655;56.780;23.922;2022-09-02T03:16:19;6.80;99.90
57386;DHT22;62655;56.780;23.922;2022-09-02T03:18:47;6.80;99.90
57386;DHT22;62655;56.780;23.922;2022-09-02T03:21:16;6.70;99.90
57386;DHT22;62655;56.780;23.922;2022-09-02T03:23:44;6.80;99.90
57386;DHT22;62655;56.780;23.922;2022-09-02T03:26:15;6.70;99.90
57386;DHT22;62655;56.780;23.922;2022-09-02T03:28:45;6.70;99.90
57386;DHT22;62655;56.780;23.922;2022-09-02T03:31:19;6.70;99.90
57386;DHT22;62655;56.780;23.922;2022-09-02T03:33:47;6.70;99.90
57386;DHT22;62655;56.780;23.922;2022-09-02T03:36:28;6.70;99.90
57386;DHT22;62655;56.780;23.922;2022-09-02T03:38:56;6.70;99.90
57386;DHT22;62655;56.780;23.922;2022-09-02T03:41:24;6.70;99.90
57386;DHT22;62655;56.780;23.922;2022-09-02T03:43:52;6.80;99.90
57386;DHT22;62655;56.780;23.922;2022-09-02T03:46:19;6.70;99.90
57386;DHT22;62655;56.780;23.922;2022-09-02T03:48:47;6.80;99.90
57386;DHT22;62655;56.780;23.922;2022-09-02T03:51:18;6.80;99.90
57386;DHT22;62655;56.780;23.922;2022-09-02T03:53:46;6.80;99.90
57386;DHT22;62655;56.780;23.922;2022-09-02T03:56:14;6.70;99.90
57386;DHT22;62655;56.780;23.922;2022-09-02T03:58:44;6.70;99.90
57386;DHT22;62655;56.780;23.922;2022-09-02T04:01:14;6.80;99.90
57386;DHT22;62655;56.780;23.922;2022-09-02T04:03:43;6.80;99.90
57386;DHT22;62655;56.780;23.922;2022-09-02T04:06:12;6.90;99.90
57386;DHT22;62655;56.780;23.922;2022-09-02T04:08:41;7.00;99.90
57386;DHT22;62655;56.780;23.922;2022-09-02T04:11:13;7.10;99.90
57386;DHT22;62655;56.780;23.922;2022-09-02T04:13:43;7.20;99.90
57386;DHT22;62655;56.780;23.922;2022-09-02T04:16:15;7.20;99.90
57386;DHT22;62655;56.780;23.922;2022-09-02T04:18:43;7.30;99.90
57386;DHT22;62655;56.780;23.922;2022-09-02T04:21:11;7.30;99.90
57386;DHT22;62655;56.780;23.922;2022-09-02T04:23:38;7.30;99.90
57386;DHT22;62655;56.780;23.922;2022-09-02T04:26:09;7.30;99.90
57386;DHT22;62655;56.780;23.922;2022-09-02T04:28:37;7.30;99.90
57386;DHT22;62655;56.780;23.922;2022-09-02T04:31:07;7.40;99.90
57386;DHT22;62655;56.780;23.922;2022-09-02T04:33:35;7.40;99.90
57386;DHT22;62655;56.780;23.922;2022-09-02T04:36:07;7.50;99.90
57386;DHT22;62655;56.780;23.922;2022-09-02T04:38:38;7.60;99.90
57386;DHT22;62655;56.780;23.922;2022-09-02T04:41:12;7.80;99.90
57386;DHT22;62655;56.780;23.922;2022-09-02T04:43:40;7.90;99.90
57386;DHT22;62655;56.780;23.922;2022-09-02T04:46:12;7.90;99.90
57386;DHT22;62655;56.780;23.922;2022-09-02T04:48:42;8.00;99.90
57386;DHT22;62655;56.780;23.922;2022-09-02T04:51:16;8.00;99.90
57386;DHT22;62655;56.780;23.922;2022-09-02T04:53:45;8.10;99.90
57386;DHT22;62655;56.780;23.922;2022-09-02T04:56:15;8.00;99.90
57386;DHT22;62655;56.780;23.922;2022-09-02T04:58:44;8.10;99.90
57386;DHT22;62655;56.780;23.922;2022-09-02T05:01:21;8.10;99.90
57386;DHT22;62655;56.780;23.922;2022-09-02T05:03:50;8.20;99.90
57386;DHT22;62655;56.780;23.922;2022-09-02T05:06:20;8.20;99.90
57386;DHT22;62655;56.780;23.922;2022-09-02T05:08:48;8.20;99.90
57386;DHT22;62655;56.780;23.922;2022-09-02T05:11:18;8.20;99.90
57386;DHT22;62655;56.780;23.922;2022-09-02T05:13:48;8.20;99.90
57386;DHT22;62655;56.780;23.922;2022-09-02T05:16:20;8.30;99.90
57386;DHT22;62655;56.780;23.922;2022-09-02T05:18:49;8.30;99.90
57386;DHT22;62655;56.780;23.922;2022-09-02T05:21:17;8.30;99.90
57386;DHT22;62655;56.780;23.922;2022-09-02T05:23:45;8.30;99.90
57386;DHT22;62655;56.780;23.922;2022-09-02T05:26:13;8.30;99.90
57386;DHT22;62655;56.780;23.922;2022-09-02T05:28:41;8.40;99.90
57386;DHT22;62655;56.780;23.922;2022-09-02T05:31:12;8.50;99.90
57386;DHT22;62655;56.780;23.922;2022-09-02T05:33:40;8.60;99.90
57386;DHT22;62655;56.780;23.922;2022-09-02T05:36:15;8.80;99.90
57386;DHT22;62655;56.780;23.922;2022-09-02T05:38:44;8.80;99.90
57386;DHT22;62655;56.780;23.922;2022-09-02T05:41:14;9.00;99.90
57386;DHT22;62655;56.780;23.922;2022-09-02T05:43:43;9.00;99.90
57386;DHT22;62655;56.780;23.922;2022-09-02T05:46:13;9.00;99.90
57386;DHT22;62655;56.780;23.922;2022-09-02T05:48:44;9.10;99.90
57386;DHT22;62655;56.780;23.922;2022-09-02T05:51:42;9.10;99.90
57386;DHT22;62655;56.780;23.922;2022-09-02T05:54:16;9.50;99.90
57386;DHT22;62655;56.780;23.922;2022-09-02T05:56:45;10.00;99.90
57386;DHT22;62655;56.780;23.922;2022-09-02T05:59:13;10.60;99.90
57386;DHT22;62655;56.780;23.922;2022-09-02T06:01:41;11.20;99.90
57386;DHT22;62655;56.780;23.922;2022-09-02T06:04:09;11.60;99.90
57386;DHT22;62655;56.780;23.922;2022-09-02T06:06:37;11.80;99.90
57386;DHT22;62655;56.780;23.922;2022-09-02T06:09:06;11.80;99.90
57386;DHT22;62655;56.780;23.922;2022-09-02T06:11:36;11.70;99.90
57386;DHT22;62655;56.780;23.922;2022-09-02T06:14:12;11.40;99.90
57386;DHT22;62655;56.780;23.922;2022-09-02T06:16:41;11.80;99.90
57386;DHT22;62655;56.780;23.922;2022-09-02T06:19:09;11.80;99.90
57386;DHT22;62655;56.780;23.922;2022-09-02T06:21:40;11.70;99.90
57386;DHT22;62655;56.780;23.922;2022-09-02T06:24:10;11.30;99.90
57386;DHT22;62655;56.780;23.922;2022-09-02T06:26:39;11.60;99.90
57386;DHT22;62655;56.780;23.922;2022-09-02T06:29:08;11.90;99.90
57386;DHT22;62655;56.780;23.922;2022-09-02T06:31:39;11.90;99.90
57386;DHT22;62655;56.780;23.922;2022-09-02T06:34:06;11.90;99.90
57386;DHT22;62655;56.780;23.922;2022-09-02T06:36:37;12.00;99.90
57386;DHT22;62655;56.780;23.922;2022-09-02T06:39:04;11.80;99.90
57386;DHT22;62655;56.780;23.922;2022-09-02T06:41:33;11.70;99.90
57386;DHT22;62655;56.780;23.922;2022-09-02T06:44:05;11.00;99.90
57386;DHT22;62655;56.780;23.922;2022-09-02T06:46:39;10.70;99.90
57386;DHT22;62655;56.780;23.922;2022-09-02T06:49:07;10.90;99.90
57386;DHT22;62655;56.780;23.922;2022-09-02T06:51:41;11.20;99.90
57386;DHT22;62655;56.780;23.922;2022-09-02T06:54:11;11.60;99.90
57386;DHT22;62655;56.780;23.922;2022-09-02T06:56:40;11.90;99.90
57386;DHT22;62655;56.780;23.922;2022-09-02T06:59:14;12.30;99.90
57386;DHT22;62655;56.780;23.922;2022-09-02T07:01:42;12.60;99.90
57386;DHT22;62655;56.780;23.922;2022-09-02T07:04:10;12.40;99.90
57386;DHT22;62655;56.780;23.922;2022-09-02T07:06:57;12.40;99.90
57386;DHT22;62655;56.780;23.922;2022-09-02T07:09:26;12.30;99.90
57386;DHT22;62655;56.780;23.922;2022-09-02T07:12:03;12.40;99.90
57386;DHT22;62655;56.780;23.922;2022-09-02T09:11:55;26.80;73.70
57386;DHT22;62655;56.780;23.922;2022-09-02T09:17:30;26.80;70.90
57386;DHT22;62655;56.780;23.922;2022-09-02T09:22:33;27.30;70.00
57386;DHT22;62655;56.780;23.922;2022-09-02T09:25:13;27.50;68.80
57386;DHT22;62655;56.780;23.922;2022-09-02T09:27:43;27.60;70.60
57386;DHT22;62655;56.780;23.922;2022-09-02T09:30:14;27.10;67.40
57386;DHT22;62655;56.780;23.922;2022-09-02T09:32:45;25.40;68.10
57386;DHT22;62655;56.780;23.922;2022-09-02T09:35:16;24.20;72.00
57386;DHT22;62655;56.780;23.922;2022-09-02T09:37:45;24.20;75.10
57386;DHT22;62655;56.780;23.922;2022-09-02T09:45:45;26.70;71.40
57386;DHT22;62655;56.780;23.922;2022-09-02T09:48:25;26.00;68.70
57386;DHT22;62655;56.780;23.922;2022-09-02T09:53:30;23.00;75.20
57386;DHT22;62655;56.780;23.922;2022-09-02T09:56:00;23.80;75.10
57386;DHT22;62655;56.780;23.922;2022-09-02T10:01:27;25.40;74.20
57386;DHT22;62655;56.780;23.922;2022-09-02T10:03:56;25.70;71.10
57386;DHT22;62655;56.780;23.922;2022-09-02T10:09:30;27.80;65.70
57386;DHT22;62655;56.780;23.922;2022-09-02T10:12:07;27.40;68.40
57386;DHT22;62655;56.780;23.922;2022-09-02T10:14:48;25.40;71.50
57386;DHT22;62655;56.780;23.922;2022-09-02T10:20:07;25.20;71.50
57386;DHT22;62655;56.780;23.922;2022-09-02T10:22:54;23.20;74.70
57386;DHT22;62655;56.780;23.922;2022-09-02T10:25:38;23.70;73.20
57386;DHT22;62655;56.780;23.922;2022-09-02T10:28:53;24.00;73.50
57386;DHT22;62655;56.780;23.922;2022-09-02T10:34:53;24.20;72.30
57386;DHT22;62655;56.780;23.922;2022-09-02T10:37:24;24.00;74.00
57386;DHT22;62655;56.780;23.922;2022-09-02T10:45:33;22.50;78.40
57386;DHT22;62655;56.780;23.922;2022-09-02T10:56:14;26.20;74.10
57386;DHT22;62655;56.780;23.922;2022-09-02T10:58:58;28.50;70.30
57386;DHT22;62655;56.780;23.922;2022-09-02T11:06:59;24.30;74.20
57386;DHT22;62655;56.780;23.922;2022-09-02T11:09:45;24.10;74.60
57386;DHT22;62655;56.780;23.922;2022-09-02T11:12:36;22.60;77.50
57386;DHT22;62655;56.780;23.922;2022-09-02T11:15:19;21.40;80.40
57386;DHT22;62655;56.780;23.922;2022-09-02T11:21:45;19.90;82.70
57386;DHT22;62655;56.780;23.922;2022-09-02T11:24:29;19.10;86.20
57386;DHT22;62655;56.780;23.922;2022-09-02T11:30:11;18.00;90.50
57386;DHT22;62655;56.780;23.922;2022-09-02T11:32:51;17.60;91.70
57386;DHT22;62655;56.780;23.922;2022-09-02T11:35:26;17.30;92.30
57386;DHT22;62655;56.780;23.922;2022-09-02T11:40:43;17.20;93.50
57386;DHT22;62655;56.780;23.922;2022-09-02T11:53:03;19.70;90.00
57386;DHT22;62655;56.780;23.922;2022-09-02T11:55:48;19.30;88.90
57386;DHT22;62655;56.780;23.922;2022-09-02T12:01:34;18.40;91.20
57386;DHT22;62655;56.780;23.922;2022-09-02T12:09:55;18.20;93.40
57386;DHT22;62655;56.780;23.922;2022-09-02T12:23:07;17.50;94.90
57386;DHT22;62655;56.780;23.922;2022-09-02T12:25:36;17.40;94.00
57386;DHT22;62655;56.780;23.922;2022-09-02T12:33:30;17.80;94.50
57386;DHT22;62655;56.780;23.922;2022-09-02T12:35:58;18.20;93.30
57386;DHT22;62655;56.780;23.922;2022-09-02T12:38:36;18.40;91.60
57386;DHT22;62655;56.780;23.922;2022-09-02T12:49:59;18.90;91.60
57386;DHT22;62655;56.780;23.922;2022-09-02T12:52:09;21.40;86.40
57386;DHT22;62655;56.780;23.922;2022-09-02T12:57:06;20.90;86.50
57386;DHT22;62655;56.780;23.922;2022-09-02T12:59:37;20.30;87.20
57386;DHT22;62655;56.780;23.922;2022-09-02T13:10:20;19.70;90.30
57386;DHT22;62655;56.780;23.922;2022-09-02T13:21:32;21.30;85.60
57386;DHT22;62655;56.780;23.922;2022-09-02T13:24:36;20.80;83.70
57386;DHT22;62655;56.780;23.922;2022-09-02T13:33:27;21.50;83.70
57386;DHT22;62655;56.780;23.922;2022-09-02T13:35:56;21.50;81.50
57386;DHT22;62655;56.780;23.922;2022-09-02T13:38:29;20.40;86.50
57386;DHT22;62655;56.780;23.922;2022-09-02T13:40:57;19.50;89.30
57386;DHT22;62655;56.780;23.922;2022-09-02T13:43:26;19.40;89.30
57386;DHT22;62655;56.780;23.922;2022-09-02T13:45:59;20.80;88.00
57386;DHT22;62655;56.780;23.922;2022-09-02T13:48:30;22.40;85.90
57386;DHT22;62655;56.780;23.922;2022-09-02T13:51:33;24.40;79.10
57386;DHT22;62655;56.780;23.922;2022-09-02T13:53:57;24.40;78.10
57386;DHT22;62655;56.780;23.922;2022-09-02T13:56:45;21.90;81.00
57386;DHT22;62655;56.780;23.922;2022-09-02T13:59:13;21.00;86.30
57386;DHT22;62655;56.780;23.922;2022-09-02T14:01:57;19.90;88.80
57386;DHT22;62655;56.780;23.922;2022-09-02T14:04:25;18.90;89.00
57386;DHT22;62655;56.780;23.922;2022-09-02T14:06:54;18.10;90.70
57386;DHT22;62655;56.780;23.922;2022-09-02T14:09:26;17.80;91.80
57386;DHT22;62655;56.780;23.922;2022-09-02T14:11:55;17.40;92.80
57386;DHT22;62655;56.780;23.922;2022-09-02T14:14:25;17.20;92.90
57386;DHT22;62655;56.780;23.922;2022-09-02T14:17:21;17.00;93.40
57386;DHT22;62655;56.780;23.922;2022-09-02T14:19:50;16.60;94.30
57386;DHT22;62655;56.780;23.922;2022-09-02T14:22:27;16.30;94.80
57386;DHT22;62655;56.780;23.922;2022-09-02T14:24:55;15.90;95.90
57386;DHT22;62655;56.780;23.922;2022-09-02T14:27:23;16.00;96.30
57386;DHT22;62655;56.780;23.922;2022-09-02T14:29:55;15.90;96.60
57386;DHT22;62655;56.780;23.922;2022-09-02T14:32:25;15.80;98.10
57386;DHT22;62655;56.780;23.922;2022-09-02T14:37:53;15.70;99.90
57386;DHT22;62655;56.780;23.922;2022-09-02T14:40:38;15.60;99.90
57386;DHT22;62655;56.780;23.922;2022-09-02T14:43:14;15.70;99.90
57386;DHT22;62655;56.780;23.922;2022-09-02T14:45:48;15.50;99.90
57386;DHT22;62655;56.780;23.922;2022-09-02T14:48:24;15.40;99.90
57386;DHT22;62655;56.780;23.922;2022-09-02T14:51:03;15.50;99.90
57386;DHT22;62655;56.780;23.922;2022-09-02T14:53:32;15.40;99.90
57386;DHT22;62655;56.780;23.922;2022-09-02T14:56:01;15.40;99.90
57386;DHT22;62655;56.780;23.922;2022-09-02T14:58:28;15.40;99.90
57386;DHT22;62655;56.780;23.922;2022-09-02T15:01:00;15.50;99.90
57386;DHT22;62655;56.780;23.922;2022-09-02T15:03:29;15.70;99.90
57386;DHT22;62655;56.780;23.922;2022-09-02T15:05:57;15.80;99.90
57386;DHT22;62655;56.780;23.922;2022-09-02T15:08:25;15.90;99.90
57386;DHT22;62655;56.780;23.922;2022-09-02T15:10:58;16.10;99.90
57386;DHT22;62655;56.780;23.922;2022-09-02T15:13:33;16.10;99.90
57386;DHT22;62655;56.780;23.922;2022-09-02T15:16:01;16.10;99.90
57386;DHT22;62655;56.780;23.922;2022-09-02T15:18:29;16.10;99.90
57386;DHT22;62655;56.780;23.922;2022-09-02T15:20:57;16.20;99.90
57386;DHT22;62655;56.780;23.922;2022-09-02T15:23:24;16.10;99.90
57386;DHT22;62655;56.780;23.922;2022-09-02T15:25:55;15.90;99.90
57386;DHT22;62655;56.780;23.922;2022-09-02T15:28:23;15.50;99.90
57386;DHT22;62655;56.780;23.922;2022-09-02T15:31:00;15.50;99.90
57386;DHT22;62655;56.780;23.922;2022-09-02T15:33:28;15.40;99.90
57386;DHT22;62655;56.780;23.922;2022-09-02T15:36:14;15.30;99.90
57386;DHT22;62655;56.780;23.922;2022-09-02T15:38:42;15.10;99.90
57386;DHT22;62655;56.780;23.922;2022-09-02T15:41:19;15.10;99.90
57386;DHT22;62655;56.780;23.922;2022-09-02T15:43:49;15.10;99.90
57386;DHT22;62655;56.780;23.922;2022-09-02T15:46:22;15.00;99.90
57386;DHT22;62655;56.780;23.922;2022-09-02T15:48:51;15.10;99.90
57386;DHT22;62655;56.780;23.922;2022-09-02T15:51:21;15.30;99.90
57386;DHT22;62655;56.780;23.922;2022-09-02T15:53:58;15.40;99.90
57386;DHT22;62655;56.780;23.922;2022-09-02T15:56:28;15.80;99.90
57386;DHT22;62655;56.780;23.922;2022-09-02T15:59:00;17.20;99.90
57386;DHT22;62655;56.780;23.922;2022-09-02T16:01:31;19.20;97.10
57386;DHT22;62655;56.780;23.922;2022-09-02T16:04:00;20.30;95.00
57386;DHT22;62655;56.780;23.922;2022-09-02T16:06:29;20.90;93.20
57386;DHT22;62655;56.780;23.922;2022-09-02T16:08:58;20.30;92.10
57386;DHT22;62655;56.780;23.922;2022-09-02T16:11:25;18.40;95.40
57386;DHT22;62655;56.780;23.922;2022-09-02T16:13:53;17.50;95.80
57386;DHT22;62655;56.780;23.922;2022-09-02T16:16:21;16.80;97.20
57386;DHT22;62655;56.780;23.922;2022-09-02T16:18:51;16.80;97.70
57386;DHT22;62655;56.780;23.922;2022-09-02T16:21:19;16.40;97.80
57386;DHT22;62655;56.780;23.922;2022-09-02T16:23:49;15.70;99.00
57386;DHT22;62655;56.780;23.922;2022-09-02T16:28:47;14.80;99.90
57386;DHT22;62655;56.780;23.922;2022-09-02T16:31:17;14.40;99.90
57386;DHT22;62655;56.780;23.922;2022-09-02T16:34:05;14.10;99.90
57386;DHT22;62655;56.780;23.922;2022-09-02T16:36:35;13.80;99.90
57386;DHT22;62655;56.780;23.922;2022-09-02T16:39:04;13.50;99.90
57386;DHT22;62655;56.780;23.922;2022-09-02T16:41:34;13.30;99.90
57386;DHT22;62655;56.780;23.922;2022-09-02T16:44:05;13.00;99.90
57386;DHT22;62655;56.780;23.922;2022-09-02T16:46:35;13.00;99.90
57386;DHT22;62655;56.780;23.922;2022-09-02T16:49:02;12.90;99.90
57386;DHT22;62655;56.780;23.922;2022-09-02T16:51:30;12.80;99.90
57386;DHT22;62655;56.780;23.922;2022-09-02T16:54:01;12.60;99.90
57386;DHT22;62655;56.780;23.922;2022-09-02T16:56:30;12.60;99.90
57386;DHT22;62655;56.780;23.922;2022-09-02T16:59:06;12.50;99.90
57386;DHT22;62655;56.780;23.922;2022-09-02T17:01:34;12.40;99.90
57386;DHT22;62655;56.780;23.922;2022-09-02T17:04:02;12.30;99.90
57386;DHT22;62655;56.780;23.922;2022-09-02T17:06:34;12.30;99.90
57386;DHT22;62655;56.780;23.922;2022-09-02T17:09:08;12.10;99.90
57386;DHT22;62655;56.780;23.922;2022-09-02T17:11:36;12.00;99.90
57386;DHT22;62655;56.780;23.922;2022-09-02T17:14:09;11.80;99.90
57386;DHT22;62655;56.780;23.922;2022-09-02T17:16:42;11.60;99.90
57386;DHT22;62655;56.780;23.922;2022-09-02T17:19:10;11.40;99.90
57386;DHT22;62655;56.780;23.922;2022-09-02T17:21:44;11.30;99.90
57386;DHT22;62655;56.780;23.922;2022-09-02T17:24:14;11.10;99.90
57386;DHT22;62655;56.780;23.922;2022-09-02T17:26:44;11.00;99.90
57386;DHT22;62655;56.780;23.922;2022-09-02T17:29:14;10.90;99.90
57386;DHT22;62655;56.780;23.922;2022-09-02T17:32:02;10.80;99.90
57386;DHT22;62655;56.780;23.922;2022-09-02T17:34:31;10.60;99.90
57386;DHT22;62655;56.780;23.922;2022-09-02T17:36:59;10.50;99.90
57386;DHT22;62655;56.780;23.922;2022-09-02T17:39:27;10.40;99.90
57386;DHT22;62655;56.780;23.922;2022-09-02T17:41:54;10.30;99.90
57386;DHT22;62655;56.780;23.922;2022-09-02T17:44:26;10.30;99.90
57386;DHT22;62655;56.780;23.922;2022-09-02T17:46:55;10.20;99.90
57386;DHT22;62655;56.780;23.922;2022-09-02T17:49:22;10.10;99.90
57386;DHT22;62655;56.780;23.922;2022-09-02T17:51:50;10.00;99.90
57386;DHT22;62655;56.780;23.922;2022-09-02T17:54:18;10.00;99.90
57386;DHT22;62655;56.780;23.922;2022-09-02T18:00:05;9.80;99.90
57386;DHT22;62655;56.780;23.922;2022-09-02T18:03:01;9.50;99.90
57386;DHT22;62655;56.780;23.922;2022-09-02T18:05:52;9.40;99.90
57386;DHT22;62655;56.780;23.922;2022-09-02T18:08:26;9.30;99.90
57386;DHT22;62655;56.780;23.922;2022-09-02T18:10:57;9.30;99.90
57386;DHT22;62655;56.780;23.922;2022-09-02T18:21:59;9.10;99.90
57386;DHT22;62655;56.780;23.922;2022-09-02T18:27:48;9.00;99.90
57386;DHT22;62655;56.780;23.922;2022-09-02T18:33:15;8.80;99.90
57386;DHT22;62655;56.780;23.922;2022-09-02T18:39:10;8.80;99.90
57386;DHT22;62655;56.780;23.922;2022-09-02T18:44:48;8.60;99.90
57386;DHT22;62655;56.780;23.922;2022-09-02T18:47:42;8.50;99.90
57386;DHT22;62655;56.780;23.922;2022-09-02T18:50:21;8.50;99.90
57386;DHT22;62655;56.780;23.922;2022-09-02T18:53:12;8.50;99.90
57386;DHT22;62655;56.780;23.922;2022-09-02T18:55:41;8.40;99.90
57386;DHT22;62655;56.780;23.922;2022-09-02T18:58:36;8.30;99.90
57386;DHT22;62655;56.780;23.922;2022-09-02T19:01:13;8.30;99.90
57386;DHT22;62655;56.780;23.922;2022-09-02T19:03:43;8.30;99.90
57386;DHT22;62655;56.780;23.922;2022-09-02T19:06:16;8.30;99.90
57386;DHT22;62655;56.780;23.922;2022-09-02T19:08:45;8.20;99.90
57386;DHT22;62655;56.780;23.922;2022-09-02T19:11:15;8.00;99.90
57386;DHT22;62655;56.780;23.922;2022-09-02T19:13:46;7.90;99.90
57386;DHT22;62655;56.780;23.922;2022-09-02T19:16:18;7.80;99.90
57386;DHT22;62655;56.780;23.922;2022-09-02T19:18:46;7.90;99.90
57386;DHT22;62655;56.780;23.922;2022-09-02T19:21:25;7.90;99.90
57386;DHT22;62655;56.780;23.922;2022-09-02T19:23:53;7.90;99.90
57386;DHT22;62655;56.780;23.922;2022-09-02T19:26:21;7.80;99.90
57386;DHT22;62655;56.780;23.922;2022-09-02T19:28:49;7.80;99.90
57386;DHT22;62655;56.780;23.922;2022-09-02T19:31:21;7.80;99.90
57386;DHT22;62655;56.780;23.922;2022-09-02T19:33:51;7.80;99.90
57386;DHT22;62655;56.780;23.922;2022-09-02T19:36:23;7.80;99.90
57386;DHT22;62655;56.780;23.922;2022-09-02T19:38:58;7.80;99.90
57386;DHT22;62655;56.780;23.922;2022-09-02T19:41:27;7.80;99.90
57386;DHT22;62655;56.780;23.922;2022-09-02T19:43:54;7.70;99.90
57386;DHT22;62655;56.780;23.922;2022-09-02T19:46:22;7.60;99.90
57386;DHT22;62655;56.780;23.922;2022-09-02T19:49:10;7.50;99.90
57386;DHT22;62655;56.780;23.922;2022-09-02T19:51:40;7.50;99.90
57386;DHT22;62655;56.780;23.922;2022-09-02T19:54:13;7.50;99.90
57386;DHT22;62655;56.780;23.922;2022-09-02T19:56:41;7.50;99.90
57386;DHT22;62655;56.780;23.922;2022-09-02T19:59:09;7.50;99.90
57386;DHT22;62655;56.780;23.922;2022-09-02T20:01:37;7.60;99.90
57386;DHT22;62655;56.780;23.922;2022-09-02T20:04:06;7.70;99.90
57386;DHT22;62655;56.780;23.922;2022-09-02T20:06:34;7.70;99.90
57386;DHT22;62655;56.780;23.922;2022-09-02T20:09:02;7.80;99.90
57386;DHT22;62655;56.780;23.922;2022-09-02T20:11:30;7.90;99.90
57386;DHT22;62655;56.780;23.922;2022-09-02T20:13:58;8.00;99.90
57386;DHT22;62655;56.780;23.922;2022-09-02T20:16:25;8.00;99.90
57386;DHT22;62655;56.780;23.922;2022-09-02T20:18:55;8.20;99.90
57386;DHT22;62655;56.780;23.922;2022-09-02T20:21:31;8.40;99.90